Time;durP1;ratioP1;P1;durP2;ratioP2;P2;SDS_P1;SDS_P2;PMS_P1;PMS_P2;Temp;Humidity;BMP_temperature;BMP_pressure;BME280_temperature;BME280_humidity;BME280_pressure;Samples;Min_cycle;Max_cycle;Signal;HPM_P1;HPM_P2
2021/05/24 00:00:28;;;;;;;6.58;2.98;;;;;;;11.71;81.00;100471.37;1674049;84;20903;-82
2021/05/24 00:02:54;;;;;;;7.85;3.27;;;;;;;11.75;80.75;100473.55;1647445;84;21070;-79
2021/05/24 00:05:23;;;;;;;6.50;2.90;;;;;;;11.80;80.76;100482.34;1670826;84;21145;-79
2021/05/24 00:07:50;;;;;;;6.62;3.20;;;;;;;11.94;80.13;100480.97;1670501;84;21045;-79
2021/05/24 00:10:18;;;;;;;;;;;;;;;11.50;81.76;100485.28;1672036;84;22355;-79
2021/05/24 00:12:49;;;;;;;10.23;3.00;;;;;;;11.60;82.12;100492.30;1653798;85;20622;-80
2021/05/24 00:15:22;;;;;;;6.60;3.10;;;;;;;11.72;81.22;100488.42;1670659;84;21039;-82
2021/05/24 00:17:52;;;;;;;6.03;3.12;;;;;;;11.63;81.25;100486.70;1651993;84;21086;-79
2021/05/24 00:20:24;;;;;;;7.22;3.02;;;;;;;11.54;81.59;100486.30;1670289;85;21103;-82
2021/05/24 00:22:51;;;;;;;5.75;2.90;;;;;;;11.50;81.73;100484.47;1662653;84;21081;-80
2021/05/24 00:25:19;;;;;;;6.08;2.85;;;;;;;11.56;81.44;100490.94;1648875;85;21098;-80
2021/05/24 00:27:49;;;;;;;6.20;2.80;;;;;;;11.53;81.50;100491.24;1648877;85;21142;-80
2021/05/24 00:30:17;;;;;;;7.33;2.95;;;;;;;11.45;81.72;100500.80;1646073;85;21183;-81
2021/05/24 00:32:43;;;;;;;8.93;3.02;;;;;;;11.59;81.13;100499.88;1647115;86;21114;-81
2021/05/24 00:35:09;;;;;;;4.58;2.75;;;;;;;11.50;81.45;100501.66;1646952;85;20951;-83
2021/05/24 00:37:37;;;;;;;8.37;2.90;;;;;;;11.50;81.42;100499.83;1648431;85;21015;-81
2021/05/24 00:40:07;;;;;;;5.45;2.85;;;;;;;11.46;81.60;100512.19;1647162;85;21590;-81
2021/05/24 00:42:35;;;;;;;6.17;2.90;;;;;;;11.44;81.67;100518.95;1647054;85;21130;-81
2021/05/24 00:45:02;;;;;;;6.35;2.62;;;;;;;11.27;82.12;100511.87;1648560;85;21749;-81
2021/05/24 00:47:28;;;;;;;;;;;;;;;11.22;82.28;100518.12;1635945;86;21042;-79
2021/05/24 00:49:57;;;;;;;6.30;2.72;;;;;;;11.18;82.46;100522.03;1649621;84;25192;-80
2021/05/24 00:52:22;;;;;;;4.45;2.50;;;;;;;11.12;82.46;100524.78;1632031;86;21385;-80
2021/05/24 00:54:51;;;;;;;4.45;2.47;;;;;;;11.03;82.76;100516.42;1647141;85;21081;-78
2021/05/24 00:57:16;;;;;;;4.47;2.77;;;;;;;10.94;83.31;100516.86;1648057;86;21122;-80
2021/05/24 00:59:42;;;;;;;5.53;2.65;;;;;;;11.08;83.17;100522.94;1634646;86;27043;-82
2021/05/24 01:02:08;;;;;;;6.78;2.87;;;;;;;11.21;82.57;100523.05;1647507;85;21161;-81
2021/05/24 01:04:36;;;;;;;5.67;2.60;;;;;;;11.12;83.09;100520.34;1645044;85;20960;-79
2021/05/24 01:07:02;;;;;;;;;;;;;;;11.41;81.48;100525.88;1651845;85;21073;-79
2021/05/24 01:09:28;;;;;;;6.65;2.92;;;;;;;11.20;82.70;100526.67;1636852;85;21080;-79
2021/05/24 01:11:54;;;;;;;7.10;3.00;;;;;;;11.34;82.14;100534.06;1647358;85;27049;-81
2021/05/24 01:14:23;;;;;;;6.05;2.67;;;;;;;11.24;82.35;100538.11;1647774;85;21745;-81
2021/05/24 01:16:52;;;;;;;4.75;2.47;;;;;;;11.06;83.02;100531.52;1646000;86;21027;-79
2021/05/24 01:19:19;;;;;;;5.85;2.92;;;;;;;11.05;83.41;100541.73;1633630;86;21154;-79
2021/05/24 01:21:48;;;;;;;6.30;2.92;;;;;;;10.99;83.50;100547.62;1646711;85;21189;-79
2021/05/24 01:24:17;;;;;;;6.10;2.80;;;;;;;10.89;83.96;100551.65;1663302;84;20997;-78
2021/05/24 01:26:44;;;;;;;7.33;3.10;;;;;;;10.84;84.31;100558.34;1667666;85;21092;-80
2021/05/24 01:29:10;;;;;;;5.00;2.62;;;;;;;10.90;84.00;100549.33;1666358;84;22291;-80
2021/05/24 01:31:37;;;;;;;4.70;2.60;;;;;;;10.89;84.02;100558.72;1645602;84;21087;-79
2021/05/24 01:34:03;;;;;;;6.17;2.62;;;;;;;10.83;84.32;100550.92;1669207;84;21252;-80
2021/05/24 01:36:31;;;;;;;6.33;2.80;;;;;;;10.76;84.77;100560.41;1648023;85;21029;-81
2021/05/24 01:38:56;;;;;;;4.90;2.90;;;;;;;10.77;84.60;100560.25;1649480;85;21022;-80
2021/05/24 01:41:23;;;;;;;7.10;3.17;;;;;;;10.78;84.54;100557.97;1668760;84;20977;-80
2021/05/24 01:43:50;;;;;;;5.97;2.90;;;;;;;10.91;84.54;100563.39;1668362;85;20998;-81
2021/05/24 01:46:15;;;;;;;6.35;3.00;;;;;;;10.74;84.90;100563.69;1666737;84;22735;-79
2021/05/24 01:48:43;;;;;;;7.85;3.27;;;;;;;10.69;85.16;100563.28;1646773;84;27128;-80
2021/05/24 01:51:09;;;;;;;6.30;3.05;;;;;;;10.72;85.45;100563.84;1669776;84;28558;-80
2021/05/24 01:53:37;;;;;;;6.17;2.98;;;;;;;10.72;85.11;100559.02;1665478;84;21173;-81
2021/05/24 01:56:04;;;;;;;8.08;3.05;;;;;;;10.68;85.50;100558.99;1667721;84;21098;-81
2021/05/24 01:58:35;;;;;;;6.95;2.92;;;;;;;10.81;85.01;100558.64;1664737;85;21106;-79
2021/05/24 02:01:10;;;;;;;7.00;3.05;;;;;;;10.80;85.04;100555.65;1669154;84;21081;-78
2021/05/24 02:03:36;;;;;;;6.47;2.83;;;;;;;10.78;85.02;100554.00;1672838;84;21058;-78
2021/05/24 02:06:05;;;;;;;5.50;2.77;;;;;;;10.60;85.96;100558.41;1668822;84;21210;-78
2021/05/24 02:08:36;;;;;;;8.03;3.85;;;;;;;10.54;86.45;100566.91;1667259;84;21044;-79
2021/05/24 02:11:03;;;;;;;7.58;3.10;;;;;;;10.58;86.02;100558.55;1667808;84;21058;-79
2021/05/24 02:13:29;;;;;;;7.83;3.17;;;;;;;10.49;86.31;100564.70;1642298;85;21645;-80
2021/05/24 02:15:55;;;;;;;6.80;3.40;;;;;;;10.54;86.41;100573.52;1669112;85;25269;-79
2021/05/24 02:18:20;;;;;;;7.28;3.20;;;;;;;10.50;86.58;100576.94;1667246;84;20970;-80
2021/05/24 02:20:46;;;;;;;7.47;3.75;;;;;;;10.47;86.75;100575.91;1668974;84;20950;-77
2021/05/24 02:23:14;;;;;;;8.10;3.30;;;;;;;10.53;86.47;100581.94;1668094;84;21305;-78
2021/05/24 02:25:39;;;;;;;8.40;3.30;;;;;;;10.53;86.41;100581.08;1647237;85;20962;-77
2021/05/24 02:28:05;;;;;;;6.70;3.30;;;;;;;10.48;86.63;100585.97;1628937;86;25232;-78
2021/05/24 02:30:31;;;;;;;5.55;3.30;;;;;;;10.59;86.31;100569.94;1632160;86;21132;-78
2021/05/24 02:32:59;;;;;;;6.08;3.25;;;;;;;10.58;86.28;100574.86;1647880;85;21174;-77
2021/05/24 02:35:28;;;;;;;9.05;3.65;;;;;;;10.66;85.89;100573.67;1646200;85;21197;-78
2021/05/24 02:37:59;;;;;;;7.87;3.30;;;;;;;10.62;85.83;100585.48;1647967;85;21045;-79
2021/05/24 02:40:27;;;;;;;5.65;3.27;;;;;;;10.64;85.68;100583.52;1646777;85;21118;-79
2021/05/24 02:42:53;;;;;;;5.92;3.30;;;;;;;10.64;86.02;100596.73;1645483;85;21121;-80
2021/05/24 02:45:22;;;;;;;8.80;3.42;;;;;;;10.65;85.83;100590.48;1648617;86;21094;-79
2021/05/24 02:47:48;;;;;;;6.90;3.12;;;;;;;10.64;85.79;100588.80;1647901;85;21185;-80
2021/05/24 02:50:19;;;;;;;8.15;3.22;;;;;;;10.71;85.44;100590.40;1647025;86;21087;-79
2021/05/24 02:52:45;;;;;;;7.20;3.45;;;;;;;10.75;85.33;100588.64;1648701;85;21039;-79
2021/05/24 02:55:11;;;;;;;7.50;3.42;;;;;;;10.81;84.82;100594.30;1647497;85;21447;-79
2021/05/24 02:57:37;;;;;;;5.53;3.12;;;;;;;10.79;84.72;100601.05;1652729;85;21146;-78
2021/05/24 03:00:06;;;;;;;7.20;3.60;;;;;;;10.80;84.99;100600.55;1648907;85;20970;-80
2021/05/24 03:02:32;;;;;;;6.72;3.12;;;;;;;10.75;84.79;100619.02;1648562;85;21018;-79
2021/05/24 03:04:57;;;;;;;8.65;3.30;;;;;;;10.87;84.35;100617.50;1648471;85;20955;-79
2021/05/24 03:07:23;;;;;;;7.60;3.22;;;;;;;10.94;84.06;100621.23;1646463;84;20923;-79
2021/05/24 03:09:49;;;;;;;7.08;3.27;;;;;;;10.81;84.34;100620.72;1647418;85;20956;-78
2021/05/24 03:12:15;;;;;;;6.92;3.20;;;;;;;10.92;83.82;100625.81;1649143;85;21282;-80
2021/05/24 03:14:40;;;;;;;8.80;3.55;;;;;;;10.72;84.62;100630.34;1632351;85;26969;-79
2021/05/24 03:17:08;;;;;;;7.55;3.02;;;;;;;10.76;84.53;100632.55;1648564;85;21140;-78
2021/05/24 03:19:38;;;;;;;6.92;3.72;;;;;;;10.84;84.24;100633.64;1648272;85;23034;-78
2021/05/24 03:22:04;;;;;;;6.20;3.40;;;;;;;10.83;84.20;100632.81;1647515;85;21102;-77
2021/05/24 03:24:29;;;;;;;7.03;3.55;;;;;;;11.01;83.93;100638.14;1647815;85;21081;-78
2021/05/24 03:26:55;;;;;;;8.83;3.60;;;;;;;11.05;83.48;100634.23;1645963;85;27159;-79
2021/05/24 03:29:21;;;;;;;4.35;3.02;;;;;;;11.13;83.04;100634.32;1647989;85;25531;-79
2021/05/24 03:31:46;;;;;;;6.42;3.58;;;;;;;11.18;82.93;100638.34;1647687;86;20940;-78
2021/05/24 03:34:16;;;;;;;6.08;3.70;;;;;;;11.18;82.84;100640.48;1648039;85;21034;-79
2021/05/24 03:36:42;;;;;;;7.65;3.72;;;;;;;11.23;82.91;100647.97;1648702;85;21572;-77
2021/05/24 03:39:09;;;;;;;6.12;2.98;;;;;;;11.28;82.65;100647.06;1628519;86;27636;-79
2021/05/24 03:41:35;;;;;;;;;;;;;;;11.27;82.48;100643.56;1650973;85;21062;-79
2021/05/24 03:44:00;;;;;;;8.43;3.65;;;;;;;11.34;82.51;100651.72;1649025;85;20512;-77
2021/05/24 03:46:26;;;;;;;9.98;3.70;;;;;;;11.30;82.34;100663.59;1647100;85;20991;-79
2021/05/24 03:48:53;;;;;;;7.03;3.50;;;;;;;11.31;82.38;100659.95;1646752;85;21171;-80
2021/05/24 03:51:20;;;;;;;8.05;3.65;;;;;;;11.23;82.82;100666.48;1646645;85;21011;-77
2021/05/24 03:53:47;;;;;;;6.95;3.90;;;;;;;11.49;82.08;100671.39;1632410;86;21017;-79
2021/05/24 03:56:13;;;;;;;5.87;3.20;;;;;;;11.43;81.97;100669.84;1645811;85;21069;-77
2021/05/24 03:58:40;;;;;;;8.38;3.72;;;;;;;11.50;82.08;100677.03;1646916;85;21174;-78
2021/05/24 04:01:06;;;;;;;5.92;3.25;;;;;;;11.49;82.00;100681.97;1648268;85;21121;-78
2021/05/24 04:03:31;;;;;;;7.72;3.47;;;;;;;11.40;82.03;100678.89;1643961;85;20936;-77
2021/05/24 04:06:00;;;;;;;6.90;3.45;;;;;;;11.43;82.20;100682.56;1648115;85;25579;-78
2021/05/24 04:08:33;;;;;;;;;;;;;;;11.47;82.13;100678.66;1652006;83;21094;-79
2021/05/24 04:10:58;;;;;;;5.75;3.25;;;;;;;11.71;81.69;100681.20;1645920;86;21068;-79
2021/05/24 04:13:23;;;;;;;6.22;3.15;;;;;;;11.82;81.16;100687.61;1644226;85;21696;-78
2021/05/24 04:15:51;;;;;;;6.33;3.52;;;;;;;11.87;80.67;100689.81;1645259;86;20951;-77
2021/05/24 04:18:18;;;;;;;;;;;;;;;11.81;80.78;100696.53;1650755;85;21047;-80
2021/05/24 04:20:46;;;;;;;4.87;3.15;;;;;;;11.76;81.31;100693.51;1631417;85;20296;-78
2021/05/24 04:23:14;;;;;;;6.67;3.33;;;;;;;11.89;80.95;100691.80;1637117;86;21726;-80
2021/05/24 04:25:40;;;;;;;7.90;3.55;;;;;;;12.03;80.50;100690.47;1664940;84;21150;-79
2021/05/24 04:28:08;;;;;;;5.87;3.37;;;;;;;12.10;80.22;100692.01;1670871;84;21458;-79
2021/05/24 04:30:33;;;;;;;6.55;3.50;;;;;;;12.25;79.73;100690.48;1667169;84;21110;-78
2021/05/24 04:32:59;;;;;;;8.08;3.80;;;;;;;12.23;79.61;100699.55;1646040;84;21029;-79
2021/05/24 04:35:25;;;;;;;8.13;3.37;;;;;;;12.39;79.32;100702.34;1668001;84;21002;-79
2021/05/24 04:37:51;;;;;;;5.97;3.47;;;;;;;12.49;78.81;100707.05;1669536;84;21746;-80
2021/05/24 04:40:21;;;;;;;6.92;3.67;;;;;;;12.44;79.02;100701.37;1668582;84;27606;-78
2021/05/24 04:42:49;;;;;;;6.90;3.83;;;;;;;12.42;79.12;100698.55;1668902;84;21057;-77
2021/05/24 04:45:15;;;;;;;;;;;;;;;12.45;79.29;100712.31;1672201;84;21132;-81
2021/05/24 04:47:41;;;;;;;8.08;3.30;;;;;;;12.62;78.96;100709.79;1669178;84;20202;-81
2021/05/24 04:50:07;;;;;;;9.10;3.80;;;;;;;12.77;78.53;100702.93;1671210;84;21156;-80
2021/05/24 04:52:34;;;;;;;7.62;3.92;;;;;;;12.97;78.25;100702.69;1668880;84;20990;-79
2021/05/24 04:54:59;;;;;;;8.45;4.90;;;;;;;13.05;77.77;100700.06;1666205;84;21156;-80
2021/05/24 04:57:25;;;;;;;7.80;4.42;;;;;;;13.14;77.02;100699.11;1670522;84;20975;-80
2021/05/24 04:59:51;;;;;;;10.60;4.42;;;;;;;13.08;76.86;100702.40;1668880;84;20965;-79
2021/05/24 05:02:17;;;;;;;10.82;5.03;;;;;;;13.03;76.99;100698.89;1667054;84;21157;-79
2021/05/24 05:04:42;;;;;;;10.15;3.95;;;;;;;13.10;76.82;100709.22;1663893;84;20919;-81
2021/05/24 05:07:08;;;;;;;8.15;3.60;;;;;;;13.24;76.55;100702.48;1652411;84;20919;-81
2021/05/24 05:09:38;;;;;;;8.48;4.08;;;;;;;13.24;76.18;100713.09;1669955;84;20934;-82
2021/05/24 05:12:05;;;;;;;7.40;3.87;;;;;;;13.34;76.36;100710.33;1670568;84;21050;-80
2021/05/24 05:14:31;;;;;;;7.20;3.58;;;;;;;13.42;76.35;100702.89;1670221;84;21157;-82
2021/05/24 05:17:00;;;;;;;8.13;3.47;;;;;;;13.51;75.93;100697.95;1669482;84;21029;-81
2021/05/24 05:19:26;;;;;;;6.65;3.87;;;;;;;13.70;75.70;100699.98;1669230;84;22000;-81
2021/05/24 05:21:53;;;;;;;6.83;3.50;;;;;;;13.77;74.98;100703.66;1645608;85;20950;-84
2021/05/24 05:24:18;;;;;;;7.60;3.30;;;;;;;13.94;75.26;100701.86;1667550;84;21026;-81
2021/05/24 05:26:44;;;;;;;9.90;3.87;;;;;;;14.05;74.50;100700.19;1669209;85;21023;-81
2021/05/24 05:29:10;;;;;;;7.92;3.37;;;;;;;14.13;74.44;100704.68;1666135;84;20958;-88
2021/05/24 05:31:36;;;;;;;5.78;3.25;;;;;;;14.25;74.03;100696.71;1646925;85;20990;-89
2021/05/24 05:34:03;;;;;;;6.60;3.62;;;;;;;14.29;73.13;100703.36;1668982;84;20932;-89
2021/05/24 05:36:29;;;;;;;6.00;3.27;;;;;;;14.43;73.04;100708.98;1668412;84;21096;-88
2021/05/24 05:38:57;;;;;;;7.40;3.33;;;;;;;14.49;72.84;100705.14;1670731;84;21280;-86
2021/05/24 05:41:24;;;;;;;9.78;3.55;;;;;;;14.63;72.97;100703.66;1669785;85;21054;-87
2021/05/24 05:43:50;;;;;;;7.62;3.65;;;;;;;14.65;72.00;100709.66;1668566;84;21761;-85
2021/05/24 05:46:16;;;;;;;8.78;3.70;;;;;;;14.68;71.43;100709.32;1649085;84;21053;-86
2021/05/24 05:48:42;;;;;;;7.37;3.25;;;;;;;14.78;71.49;100704.31;1672419;84;21004;-85
2021/05/24 05:51:11;;;;;;;8.50;3.42;;;;;;;14.85;70.98;100702.14;1652820;84;21196;-83
2021/05/24 05:53:37;;;;;;;9.25;3.47;;;;;;;14.94;70.66;100708.23;1668540;84;20958;-83
2021/05/24 05:56:03;;;;;;;7.15;3.27;;;;;;;15.05;70.66;100710.52;1671349;84;20962;-83
2021/05/24 05:58:29;;;;;;;6.12;3.08;;;;;;;15.11;69.92;100711.67;1669558;84;21047;-81
2021/05/24 06:01:02;;;;;;;9.03;3.17;;;;;;;15.15;68.84;100712.16;1650522;85;21019;-81
2021/05/24 06:03:25;;;;;;;9.48;3.20;;;;;;;15.25;68.94;100712.79;1669192;84;21714;-83
2021/05/24 06:05:55;;;;;;;5.00;2.60;;;;;;;15.29;68.53;100719.44;1667758;84;21248;-83
2021/05/24 06:08:20;;;;;;;6.70;2.65;;;;;;;15.36;67.88;100723.04;1668991;84;21974;-76
2021/05/24 06:10:47;;;;;;;7.80;2.60;;;;;;;15.45;67.35;100726.50;1672789;84;20929;-76
2021/05/24 06:13:13;;;;;;;3.40;2.17;;;;;;;15.53;66.93;100734.44;1663045;84;21164;-77
2021/05/24 06:15:38;;;;;;;4.17;2.40;;;;;;;15.60;66.75;100746.57;1643794;85;21139;-77
2021/05/24 06:18:04;;;;;;;5.12;2.25;;;;;;;15.68;66.58;100742.52;1667596;84;21246;-79
2021/05/24 06:20:31;;;;;;;4.40;2.25;;;;;;;15.77;66.67;100750.01;1669428;84;21725;-76
2021/05/24 06:22:57;;;;;;;4.75;2.45;;;;;;;15.97;66.77;100749.02;1669767;84;21048;-76
2021/05/24 06:25:23;;;;;;;4.55;2.05;;;;;;;15.90;66.19;100748.09;1656837;84;20906;-76
2021/05/24 06:27:49;;;;;;;6.40;2.75;;;;;;;16.01;66.61;100755.66;1648805;85;21046;-80
2021/05/24 06:30:16;;;;;;;8.68;2.80;;;;;;;16.03;66.84;100745.65;1648039;85;21097;-77
2021/05/24 06:32:45;;;;;;;4.65;2.60;;;;;;;16.20;67.26;100746.88;1646097;85;21115;-77
2021/05/24 06:35:12;;;;;;;7.60;2.62;;;;;;;16.50;66.92;100747.80;1647612;85;20971;-79
2021/05/24 06:37:37;;;;;;;6.62;2.50;;;;;;;16.63;65.58;100751.18;1645517;86;21176;-76
2021/05/24 06:40:05;;;;;;;6.72;2.80;;;;;;;16.71;64.24;100755.09;1646222;86;20963;-77
2021/05/24 06:42:31;;;;;;;5.42;2.70;;;;;;;16.78;64.38;100749.85;1643895;86;21081;-77
2021/05/24 06:44:57;;;;;;;5.20;2.83;;;;;;;16.90;64.64;100758.28;1647085;85;21115;-76
2021/05/24 06:47:27;;;;;;;5.90;2.65;;;;;;;17.06;64.89;100755.45;1647888;85;20975;-78
2021/05/24 06:49:54;;;;;;;9.53;2.60;;;;;;;17.17;64.57;100753.64;1648620;85;21158;-77
2021/05/24 06:52:19;;;;;;;7.28;2.20;;;;;;;17.21;63.38;100752.27;1647112;86;21173;-77
2021/05/24 06:54:47;;;;;;;4.15;1.80;;;;;;;17.29;62.39;100749.16;1629852;85;21055;-77
2021/05/24 06:57:14;;;;;;;4.15;1.62;;;;;;;17.50;60.77;100750.56;1645015;86;21025;-76
2021/05/24 06:59:40;;;;;;;2.20;1.30;;;;;;;17.39;60.11;100755.05;1645689;85;21151;-77
2021/05/24 07:02:07;;;;;;;2.45;1.25;;;;;;;17.46;58.69;100759.13;1646671;85;20943;-78
2021/05/24 07:04:38;;;;;;;2.50;1.30;;;;;;;17.52;58.53;100756.53;1643554;85;21936;-78
2021/05/24 07:07:06;;;;;;;2.52;1.20;;;;;;;17.58;58.00;100762.46;1646574;85;21141;-79
2021/05/24 07:09:32;;;;;;;1.77;1.10;;;;;;;17.62;56.40;100758.08;1648233;84;21117;-78
2021/05/24 07:11:57;;;;;;;3.12;1.40;;;;;;;17.64;56.40;100760.08;1645452;86;20939;-79
2021/05/24 07:14:24;;;;;;;2.25;1.25;;;;;;;17.64;57.30;100759.56;1647436;85;21007;-83
2021/05/24 07:16:53;;;;;;;5.22;1.50;;;;;;;17.60;56.73;100766.28;1647271;85;21123;-80
2021/05/24 07:19:20;;;;;;;3.17;1.52;;;;;;;17.67;57.41;100775.73;1650150;85;21627;-80
2021/05/24 07:21:46;;;;;;;3.17;1.50;;;;;;;17.68;57.76;100774.20;1647970;85;21017;-80
2021/05/24 07:24:14;;;;;;;2.55;1.35;;;;;;;17.79;57.08;100775.56;1646547;85;21796;-79
2021/05/24 07:26:40;;;;;;;2.50;1.30;;;;;;;17.79;56.47;100778.23;1665606;84;20923;-81
2021/05/24 07:29:08;;;;;;;3.75;1.10;;;;;;;17.88;55.89;100778.47;1669246;84;21094;-80
2021/05/24 07:31:33;;;;;;;3.87;1.50;;;;;;;17.90;55.08;100776.43;1669243;85;21094;-79
2021/05/24 07:33:59;;;;;;;1.87;1.30;;;;;;;17.97;55.79;100782.36;1669735;84;20934;-79
2021/05/24 07:36:27;;;;;;;3.50;1.40;;;;;;;18.07;55.66;100786.86;1643283;85;20967;-81
2021/05/24 07:38:53;;;;;;;2.10;1.20;;;;;;;18.10;55.04;100783.33;1667507;84;21217;-75
2021/05/24 07:41:18;;;;;;;1.95;1.20;;;;;;;18.13;54.02;100788.78;1668958;84;21124;-76
2021/05/24 07:43:44;;;;;;;2.92;1.15;;;;;;;17.99;54.06;100784.32;1667350;84;20911;-78
2021/05/24 07:46:10;;;;;;;2.40;1.20;;;;;;;18.07;54.09;100782.85;1668730;84;20997;-76
2021/05/24 07:48:36;;;;;;;1.87;1.27;;;;;;;18.13;54.09;100798.13;1668832;84;20890;-76
2021/05/24 07:51:04;;;;;;;2.12;1.20;;;;;;;18.00;54.13;100794.00;1669698;84;20947;-81
2021/05/24 07:53:30;;;;;;;2.67;1.20;;;;;;;17.99;53.96;100789.17;1669525;84;21236;-79
2021/05/24 07:55:56;;;;;;;2.25;1.40;;;;;;;18.12;54.02;100803.18;1645821;85;21202;-78
2021/05/24 07:58:21;;;;;;;2.90;1.20;;;;;;;18.20;53.73;100797.70;1668171;84;21261;-77
2021/05/24 08:00:51;;;;;;;6.03;1.67;;;;;;;18.36;53.33;100787.77;1643528;85;21224;-77
2021/05/24 08:03:18;;;;;;;2.33;1.30;;;;;;;18.42;53.89;100780.32;1667613;84;21042;-79
2021/05/24 08:05:44;;;;;;;4.67;1.40;;;;;;;18.42;52.98;100788.34;1670866;84;21269;-77
2021/05/24 08:08:12;;;;;;;1.65;1.17;;;;;;;18.29;52.40;100785.86;1670500;84;20991;-79
2021/05/24 08:10:37;;;;;;;3.52;1.20;;;;;;;18.33;52.93;100791.64;1668273;84;21619;-76
2021/05/24 08:13:03;;;;;;;2.47;1.20;;;;;;;18.43;52.74;100795.36;1667739;84;21070;-77
2021/05/24 08:15:33;;;;;;;1.92;1.27;;;;;;;18.48;51.85;100796.94;1672054;84;21573;-78
2021/05/24 08:18:04;;;;;;;2.67;1.20;;;;;;;18.53;52.39;100794.50;1646703;85;21283;-75
2021/05/24 08:20:33;;;;;;;1.65;1.10;;;;;;;18.66;51.10;100791.95;1645639;85;21222;-75
2021/05/24 08:23:01;;;;;;;1.62;1.10;;;;;;;18.75;51.43;100787.78;1648661;85;21177;-75
2021/05/24 08:25:28;;;;;;;2.45;1.20;;;;;;;18.86;51.39;100784.59;1666185;85;21290;-75
2021/05/24 08:27:57;;;;;;;2.98;1.22;;;;;;;19.03;51.68;100787.80;1645856;85;21125;-76
2021/05/24 08:30:27;;;;;;;2.47;1.20;;;;;;;19.01;50.01;100796.02;1646789;86;21107;-75
2021/05/24 08:32:53;;;;;;;2.30;1.10;;;;;;;19.01;50.02;100785.31;1647719;85;21155;-76
2021/05/24 08:35:18;;;;;;;2.83;1.10;;;;;;;19.13;49.97;100784.79;1648049;85;21082;-76
2021/05/24 08:37:44;;;;;;;2.98;1.30;;;;;;;19.23;49.45;100795.95;1648369;84;20979;-78
2021/05/24 08:40:10;;;;;;;2.80;1.40;;;;;;;19.16;48.16;100792.42;1647029;85;21018;-76
2021/05/24 08:42:42;;;;;;;2.55;1.15;;;;;;;18.95;48.25;100783.42;1646894;85;21210;-76
2021/05/24 08:45:07;;;;;;;1.90;1.20;;;;;;;19.16;48.82;100784.39;1646243;86;21070;-76
2021/05/24 08:47:33;;;;;;;2.40;1.15;;;;;;;19.46;49.09;100792.16;1647071;85;26626;-75
2021/05/24 08:49:59;;;;;;;2.00;1.20;;;;;;;19.50;47.44;100795.59;1647449;86;21215;-77
2021/05/24 08:52:28;;;;;;;2.77;1.10;;;;;;;19.63;47.90;100796.67;1650586;85;21018;-77
2021/05/24 08:54:54;;;;;;;1.62;1.07;;;;;;;19.73;48.08;100797.95;1647627;85;21747;-76
2021/05/24 08:57:19;;;;;;;1.70;1.05;;;;;;;19.80;47.35;100793.16;1648560;86;21254;-76
2021/05/24 08:59:47;;;;;;;2.22;1.10;;;;;;;19.62;45.69;100775.73;1647952;85;21007;-76
2021/05/24 09:02:14;;;;;;;1.77;1.00;;;;;;;19.25;44.72;100799.77;1648461;86;21706;-75
2021/05/24 09:04:47;;;;;;;2.08;1.12;;;;;;;19.19;44.85;100790.17;1646274;85;21142;-77
2021/05/24 09:07:15;;;;;;;2.05;0.90;;;;;;;19.28;45.99;100788.66;1646514;86;21110;-76
2021/05/24 09:09:45;;;;;;;1.07;0.85;;;;;;;19.13;44.41;100779.44;1648559;86;21030;-76
2021/05/24 09:12:19;;;;;;;2.22;1.20;;;;;;;19.22;45.03;100783.61;1634925;85;20912;-75
2021/05/24 09:14:38;;;;;;;1.62;1.20;;;;;;;19.45;45.99;100786.48;1629911;86;21032;-75
2021/05/24 09:17:04;;;;;;;1.42;1.10;;;;;;;19.08;45.51;100789.88;1648499;85;21597;-75
2021/05/24 09:19:37;;;;;;;2.15;1.17;;;;;;;19.26;45.38;100778.16;1647328;86;39180;-75
2021/05/24 09:22:08;;;;;;;1.87;1.10;;;;;;;19.29;45.80;100785.78;1648473;85;21027;-76
2021/05/24 09:24:37;;;;;;;1.87;1.02;;;;;;;19.68;45.96;100780.81;1649706;85;21012;-75
2021/05/24 09:27:07;;;;;;;2.47;1.10;;;;;;;19.90;46.24;100776.16;1634982;85;21169;-75
2021/05/24 09:29:46;;;;;;;1.60;1.12;;;;;;;19.78;45.93;100776.44;1647989;85;21121;-76
2021/05/24 09:32:21;;;;;;;2.30;1.07;;;;;;;20.00;45.81;100769.91;1647432;85;21750;-75
2021/05/24 09:34:48;;;;;;;3.08;1.05;;;;;;;20.11;45.18;100764.98;1646565;85;22201;-76
2021/05/24 09:37:15;;;;;;;3.05;1.20;;;;;;;20.25;45.06;100750.55;1645988;85;21098;-76
2021/05/24 09:39:41;;;;;;;1.82;1.10;;;;;;;20.26;45.33;100744.17;1630657;86;21117;-76
2021/05/24 09:42:14;;;;;;;4.83;1.40;;;;;;;20.07;44.56;100746.63;1646959;85;20957;-76
2021/05/24 09:44:47;;;;;;;1.52;0.90;;;;;;;20.25;44.51;100737.95;1645966;85;21257;-73
2021/05/24 09:47:15;;;;;;;1.90;1.00;;;;;;;20.40;44.26;100736.92;1647997;85;21011;-75
2021/05/24 09:49:42;;;;;;;1.57;1.07;;;;;;;20.35;43.95;100728.67;1633350;86;21046;-76
2021/05/24 09:52:09;;;;;;;1.62;1.10;;;;;;;20.30;44.87;100737.34;1631227;85;21361;-75
2021/05/24 09:54:37;;;;;;;2.05;1.00;;;;;;;20.40;44.74;100729.72;1646096;85;21138;-76
2021/05/24 09:57:10;;;;;;;2.42;1.20;;;;;;;20.47;44.14;100718.16;1647284;85;21728;-74
2021/05/24 09:59:36;;;;;;;5.03;1.20;;;;;;;20.51;44.50;100716.69;1647099;85;21014;-76
2021/05/24 10:02:05;;;;;;;2.30;1.10;;;;;;;20.54;44.90;100723.83;1631129;86;21667;-76
2021/05/24 10:04:33;;;;;;;4.60;1.10;;;;;;;20.75;44.47;100728.15;1645595;85;21140;-76
2021/05/24 10:07:01;;;;;;;2.00;1.10;;;;;;;20.79;43.95;100720.00;1646961;85;21028;-77
2021/05/24 10:09:27;;;;;;;2.83;0.90;;;;;;;20.75;43.17;100728.15;1647630;86;21088;-76
2021/05/24 10:11:53;;;;;;;2.62;1.15;;;;;;;20.98;43.83;100718.29;1647999;86;20975;-76
2021/05/24 10:14:22;;;;;;;1.72;1.00;;;;;;;21.09;44.07;100722.18;1646509;85;21134;-78
2021/05/24 10:16:56;;;;;;;1.47;0.90;;;;;;;21.12;43.27;100719.08;1647325;85;21118;-78
2021/05/24 10:19:26;;;;;;;1.90;1.00;;;;;;;21.11;42.57;100728.16;1649109;85;21006;-75
2021/05/24 10:21:51;;;;;;;1.72;0.88;;;;;;;21.21;42.92;100729.57;1645985;85;21055;-75
2021/05/24 10:24:21;;;;;;;2.60;0.98;;;;;;;21.16;41.92;100733.73;1646033;86;21131;-75
2021/05/24 10:26:47;;;;;;;2.02;0.93;;;;;;;21.20;41.93;100740.03;1648015;85;20929;-75
2021/05/24 10:29:14;;;;;;;1.27;0.78;;;;;;;21.33;41.48;100731.41;1647906;85;20923;-75
2021/05/24 10:31:40;;;;;;;2.40;1.00;;;;;;;21.47;41.43;100722.77;1645078;86;21676;-76
2021/05/24 10:34:21;;;;;;;1.72;1.02;;;;;;;21.59;41.51;100735.02;1646497;85;21663;-75
2021/05/24 10:37:09;;;;;;;3.33;1.00;;;;;;;21.62;41.37;100729.75;1648167;85;21091;-77
2021/05/24 10:40:01;;;;;;;1.47;0.90;;;;;;;21.60;40.64;100727.80;1646155;85;21054;-76
2021/05/24 10:42:44;;;;;;;2.40;1.10;;;;;;;21.02;40.94;100724.09;1642507;85;21039;-75
2021/05/24 10:45:25;;;;;;;2.62;0.90;;;;;;;20.78;41.90;100721.02;1648092;85;21042;-75
2021/05/24 10:47:59;;;;;;;1.80;1.10;;;;;;;21.04;41.84;100722.00;1643194;85;21063;-76
2021/05/24 10:50:30;;;;;;;1.70;0.95;;;;;;;21.16;42.27;100717.63;1644537;86;21006;-76
2021/05/24 10:53:00;;;;;;;1.70;0.90;;;;;;;21.29;40.69;100718.61;1645079;85;21123;-77
2021/05/24 10:55:31;;;;;;;2.77;0.95;;;;;;;21.16;40.87;100725.68;1646459;86;21087;-76
2021/05/24 10:58:11;;;;;;;5.78;2.80;;;;;;;21.26;41.33;100725.22;1647528;86;21117;-79
2021/05/24 11:00:59;;;;;;;3.90;1.50;;;;;;;21.44;41.12;100721.85;1648519;85;21119;-75
2021/05/24 11:03:24;;;;;;;2.30;1.10;;;;;;;21.49;40.50;100719.37;1643040;85;21077;-76
2021/05/24 11:06:13;;;;;;;2.95;1.10;;;;;;;21.20;40.99;100719.88;1645063;85;20956;-78
2021/05/24 11:08:44;;;;;;;2.47;1.20;;;;;;;21.29;41.32;100713.23;1646867;85;21143;-77
2021/05/24 11:11:26;;;;;;;3.25;1.20;;;;;;;21.05;41.43;100707.55;1649222;85;21034;-75
2021/05/24 11:14:12;;;;;;;1.52;1.00;;;;;;;21.15;41.28;100697.16;1647222;85;21064;-77
2021/05/24 11:16:42;;;;;;;2.67;0.80;;;;;;;21.29;41.13;100697.12;1645735;86;21630;-79
2021/05/24 11:19:15;;;;;;;2.45;1.00;;;;;;;21.26;40.75;100697.55;1632481;85;21082;-79
2021/05/24 11:21:48;;;;;;;1.55;0.90;;;;;;;21.52;40.66;100704.69;1646634;85;21572;-78
2021/05/24 11:24:41;;;;;;;2.47;0.90;;;;;;;21.63;40.55;100705.88;1630859;86;21023;-77
2021/05/24 11:27:15;;;;;;;0.93;0.70;;;;;;;21.83;39.33;100707.06;1656266;84;20966;-79
2021/05/24 11:29:43;;;;;;;1.20;0.80;;;;;;;21.65;39.88;100708.63;1669283;84;21053;-76